AYNZ/LAE METAR and TAF weather

Enter ICAO airport designator
Station Type Date Time Source
AYNZ METAR 2019/10/18 06:00 UTC NOAA

AYNZ 180600Z 03012KT 9999 FU HZ FEW035 29/18 Q1009=


Station Type Date Time Source
AYNZ Decoded METAR 2019/10/18 06:00 UTC NOAA

Station name not available
Oct 18, 2019 - 02:00 AM EDT / 2019.10.18 0600 UTC
Wind: from the NNE (030 degrees) at 14 MPH (12 KT):0
Visibility: greater than 7 mile(s):0
Sky conditions: mostly clear
Weather: smoke; haze
Temperature: 84 F (29 C)
Dew Point: 64 F (18 C)
Relative Humidity: 51%
Pressure (altimeter): 29.80 in. Hg (1009 hPa)
ob: AYNZ 180600Z 03012KT 9999 FU HZ FEW035 29/18 Q1009=
cycle: 6

Station Type Date Time Source
AYNZ TAF 2015/08/19 08:15 UTC NOAA

TAF AYNZ 190550Z 1908/1920 09015KT 9999 SCT020 SCT120
FM191400 VRB03KT 9999 BKN040 Q 1011 1014 1013 1010

Example: see airport list